Time;durP1;ratioP1;P1;durP2;ratioP2;P2;SDS_P1;SDS_P2;PMS_P1;PMS_P2;Temp;Humidity;BMP_temperature;BMP_pressure;BME280_temperature;BME280_humidity;BME280_pressure;Samples;Min_cycle;Max_cycle;Signal;HPM_P1;HPM_P2
2022/02/13 00:00:03;;;;;;;;;;;20.00;50.70;;;;;;5062579;28;19923;-59
2022/02/13 00:02:29;;;;;;;;;;;20.00;50.60;;;;;;5063610;28;19908;-55
2022/02/13 00:04:54;;;;;;;;;;;20.00;50.70;;;;;;5062976;28;19913;-53
2022/02/13 00:07:20;;;;;;;;;;;20.00;50.50;;;;;;5063924;28;19916;-56
2022/02/13 00:09:45;;;;;;;;;;;20.00;50.70;;;;;;5062873;28;19920;-53
2022/02/13 00:12:11;;;;;;;;;;;20.00;50.60;;;;;;5063218;28;20282;-56
2022/02/13 00:14:36;;;;;;;;;;;20.00;50.50;;;;;;5063028;28;19916;-54
2022/02/13 00:17:01;;;;;;;;;;;20.00;50.50;;;;;;5046460;28;19935;-56
2022/02/13 00:19:27;;;;;;;;;;;20.00;50.50;;;;;;5062973;28;19916;-54
2022/02/13 00:21:52;;;;;;;;;;;20.00;50.50;;;;;;5063009;28;19917;-53
2022/02/13 00:24:18;;;;;;;;;;;20.00;50.50;;;;;;5063177;28;19916;-52
2022/02/13 00:26:43;;;;;;;;;;;20.00;50.50;;;;;;5063600;28;19912;-57
2022/02/13 00:29:10;;;;;;;;;;;20.00;50.50;;;;;;5063008;28;20552;-55
2022/02/13 00:31:35;;;;;;;;;;;20.00;50.30;;;;;;5063336;28;19986;-53
2022/02/13 00:34:01;;;;;;;;;;;20.00;50.40;;;;;;5063952;28;20365;-54
2022/02/13 00:36:26;;;;;;;;;;;20.00;50.20;;;;;;5062750;28;19909;-58
2022/02/13 00:38:52;;;;;;;;;;;20.00;50.40;;;;;;5062302;28;19939;-52
2022/02/13 00:41:17;;;;;;;;;;;20.00;50.40;;;;;;5065326;28;19912;-52
2022/02/13 00:43:43;;;;;;;;;;;20.00;50.30;;;;;;5068430;28;19909;-55
2022/02/13 00:46:08;;;;;;;;;;;20.00;50.20;;;;;;5062983;28;19912;-56
2022/02/13 00:48:34;;;;;;;;;;;20.00;50.20;;;;;;5062757;28;19915;-52
2022/02/13 00:50:59;;;;;;;;;;;20.00;50.30;;;;;;5063648;28;19908;-53
2022/02/13 00:53:25;;;;;;;;;;;20.00;50.20;;;;;;5065387;28;19924;-56
2022/02/13 00:55:50;;;;;;;;;;;20.00;50.20;;;;;;5063124;28;20381;-57
2022/02/13 00:58:16;;;;;;;;;;;19.90;50.10;;;;;;5063557;28;19916;-54
2022/02/13 01:00:41;;;;;;;;;;;19.90;50.20;;;;;;5044993;28;19908;-58
2022/02/13 01:03:07;;;;;;;;;;;19.90;50.10;;;;;;5051061;28;20294;-55
2022/02/13 01:05:32;;;;;;;;;;;20.00;50.00;;;;;;5063926;28;19916;-52
2022/02/13 01:07:58;;;;;;;;;;;19.90;50.00;;;;;;5062683;28;19916;-56
2022/02/13 01:10:23;;;;;;;;;;;19.90;50.00;;;;;;5062736;28;19939;-54
2022/02/13 01:12:48;;;;;;;;;;;19.90;49.90;;;;;;5062460;28;20436;-53
2022/02/13 01:15:15;;;;;;;;;;;19.90;49.90;;;;;;5063248;28;19908;-56
2022/02/13 01:17:40;;;;;;;;;;;19.90;49.80;;;;;;5062696;28;19935;-54
2022/02/13 01:20:06;;;;;;;;;;;19.90;50.00;;;;;;5061992;28;20284;-56
2022/02/13 01:22:31;;;;;;;;;;;19.90;50.00;;;;;;5066920;28;20506;-52
2022/02/13 01:24:57;;;;;;;;;;;19.90;50.00;;;;;;5044661;28;19908;-53
2022/02/13 01:27:22;;;;;;;;;;;19.90;50.00;;;;;;5063979;28;20332;-55
2022/02/13 01:29:48;;;;;;;;;;;19.90;49.80;;;;;;5062127;28;19908;-54
2022/02/13 01:32:13;;;;;;;;;;;19.90;49.60;;;;;;5061977;28;20630;-55
2022/02/13 01:34:39;;;;;;;;;;;19.90;49.60;;;;;;5044687;28;19916;-57
2022/02/13 01:37:04;;;;;;;;;;;19.90;49.70;;;;;;5065534;28;20116;-55
2022/02/13 01:39:31;;;;;;;;;;;19.90;49.70;;;;;;5069311;28;20255;-55
2022/02/13 01:41:56;;;;;;;;;;;19.80;49.70;;;;;;5066233;28;19917;-56
2022/02/13 01:44:25;;;;;;;;;;;19.90;49.60;;;;;;5071410;28;19920;-55
2022/02/13 01:46:51;;;;;;;;;;;19.80;49.50;;;;;;5066334;28;19913;-54
2022/02/13 01:49:16;;;;;;;;;;;19.90;49.70;;;;;;5068511;28;19915;-52
2022/02/13 01:51:42;;;;;;;;;;;19.80;49.40;;;;;;5065457;28;20503;-57
2022/02/13 01:54:08;;;;;;;;;;;19.80;49.50;;;;;;5048629;28;19926;-52
2022/02/13 01:56:34;;;;;;;;;;;19.80;49.60;;;;;;5066102;28;19908;-55
2022/02/13 01:59:00;;;;;;;;;;;19.80;49.40;;;;;;5066983;28;20408;-53
2022/02/13 02:01:25;;;;;;;;;;;19.80;49.50;;;;;;5065555;28;19915;-54
2022/02/13 02:03:51;;;;;;;;;;;19.80;49.30;;;;;;5068331;28;19909;-57
2022/02/13 02:06:16;;;;;;;;;;;19.80;49.40;;;;;;5047112;28;20007;-51
2022/02/13 02:08:41;;;;;;;;;;;19.80;49.40;;;;;;5064602;28;19919;-53
2022/02/13 02:11:07;;;;;;;;;;;19.80;49.20;;;;;;5065822;28;19965;-53
2022/02/13 02:13:32;;;;;;;;;;;19.80;49.10;;;;;;5065321;28;19912;-52
2022/02/13 02:15:58;;;;;;;;;;;19.80;49.30;;;;;;5065875;28;20514;-52
2022/02/13 02:18:23;;;;;;;;;;;19.80;49.10;;;;;;5065050;28;19976;-53
2022/02/13 02:20:49;;;;;;;;;;;19.80;49.20;;;;;;5065276;28;19915;-54
2022/02/13 02:23:15;;;;;;;;;;;19.80;49.10;;;;;;5066656;28;20576;-51
2022/02/13 02:25:40;;;;;;;;;;;19.80;48.90;;;;;;5047721;28;19978;-53
2022/02/13 02:28:06;;;;;;;;;;;19.80;48.70;;;;;;5065204;28;19924;-56
2022/02/13 02:30:31;;;;;;;;;;;19.80;48.40;;;;;;5065097;28;20408;-52
2022/02/13 02:32:56;;;;;;;;;;;19.80;48.40;;;;;;5065087;28;19913;-56
2022/02/13 02:35:23;;;;;;;;;;;19.80;48.40;;;;;;5065447;28;19913;-56
2022/02/13 02:37:48;;;;;;;;;;;19.80;48.40;;;;;;5065152;28;20277;-54
2022/02/13 02:40:15;;;;;;;;;;;19.80;48.40;;;;;;5031372;28;19909;-57
2022/02/13 02:42:41;;;;;;;;;;;19.80;48.40;;;;;;5062811;28;19909;-55
2022/02/13 02:45:06;;;;;;;;;;;19.80;48.40;;;;;;5072302;28;19912;-55
2022/02/13 02:47:32;;;;;;;;;;;19.70;48.30;;;;;;5065000;28;19909;-57
2022/02/13 02:49:57;;;;;;;;;;;19.70;48.30;;;;;;5064214;28;19916;-54
2022/02/13 02:52:23;;;;;;;;;;;19.70;48.20;;;;;;5064893;28;20290;-56
2022/02/13 02:54:48;;;;;;;;;;;19.70;48.10;;;;;;5067298;28;19912;-55
2022/02/13 02:57:14;;;;;;;;;;;19.70;48.20;;;;;;5065047;28;19909;-55
2022/02/13 02:59:39;;;;;;;;;;;19.60;48.20;;;;;;5068911;28;19916;-54
2022/02/13 03:02:05;;;;;;;;;;;19.60;48.20;;;;;;5065932;28;19913;-57
2022/02/13 03:04:30;;;;;;;;;;;19.50;48.20;;;;;;5066605;28;19916;-54
2022/02/13 03:06:56;;;;;;;;;;;19.50;48.30;;;;;;5064936;28;19968;-51
2022/02/13 03:09:21;;;;;;;;;;;19.50;48.30;;;;;;5064099;28;19908;-53
2022/02/13 03:11:47;;;;;;;;;;;19.50;48.30;;;;;;5047242;28;20340;-58
2022/02/13 03:14:12;;;;;;;;;;;19.50;48.30;;;;;;5064952;28;19969;-57
2022/02/13 03:16:38;;;;;;;;;;;19.40;48.30;;;;;;5064773;28;19908;-53
2022/02/13 03:19:03;;;;;;;;;;;19.40;48.30;;;;;;5064702;28;19909;-57
2022/02/13 03:21:28;;;;;;;;;;;19.50;48.30;;;;;;5063711;28;20611;-58
2022/02/13 03:23:54;;;;;;;;;;;19.50;48.00;;;;;;5064717;28;19927;-56
2022/02/13 03:26:23;;;;;;;;;;;19.50;48.10;;;;;;5064399;28;19908;-55
2022/02/13 03:28:48;;;;;;;;;;;19.60;48.20;;;;;;5064371;28;20362;-55
2022/02/13 03:31:14;;;;;;;;;;;19.60;48.10;;;;;;5071613;28;19958;-49
2022/02/13 03:33:39;;;;;;;;;;;19.60;48.10;;;;;;5063060;28;20420;-56
2022/02/13 03:36:05;;;;;;;;;;;19.60;48.70;;;;;;5064379;28;19908;-55
2022/02/13 03:38:30;;;;;;;;;;;19.60;48.10;;;;;;5046470;28;20046;-58
2022/02/13 03:40:57;;;;;;;;;;;19.60;48.10;;;;;;5067012;28;19916;-55
2022/02/13 03:43:22;;;;;;;;;;;19.60;48.00;;;;;;5064318;28;19912;-55
2022/02/13 03:45:48;;;;;;;;;;;19.60;48.10;;;;;;5064108;28;19916;-56
2022/02/13 03:48:13;;;;;;;;;;;19.60;48.10;;;;;;5046215;28;19990;-53
2022/02/13 03:50:39;;;;;;;;;;;19.60;48.20;;;;;;5063322;28;20401;-57
2022/02/13 03:53:04;;;;;;;;;;;19.50;48.20;;;;;;5063788;28;19924;-65
2022/02/13 03:55:30;;;;;;;;;;;19.50;48.20;;;;;;5071918;28;19935;-57
2022/02/13 03:57:56;;;;;;;;;;;19.50;48.30;;;;;;5046406;28;19909;-55
2022/02/13 04:00:21;;;;;;;;;;;19.50;48.30;;;;;;5045373;28;19922;-54
2022/02/13 04:02:47;;;;;;;;;;;19.60;48.40;;;;;;5063421;28;19913;-56
2022/02/13 04:05:12;;;;;;;;;;;19.60;48.40;;;;;;5063248;28;19912;-57
2022/02/13 04:07:38;;;;;;;;;;;19.60;48.30;;;;;;5044361;28;19924;-57
2022/02/13 04:10:04;;;;;;;;;;;19.50;48.40;;;;;;5050915;28;20357;-55
2022/02/13 04:12:29;;;;;;;;;;;19.50;48.40;;;;;;5063435;28;19909;-55
2022/02/13 04:14:55;;;;;;;;;;;19.50;48.40;;;;;;5064347;28;20412;-53
2022/02/13 04:17:20;;;;;;;;;;;19.60;48.50;;;;;;5063226;28;19975;-54
2022/02/13 04:19:46;;;;;;;;;;;19.50;48.40;;;;;;5062381;28;19920;-56
2022/02/13 04:22:11;;;;;;;;;;;19.60;48.50;;;;;;5063152;28;20376;-57
2022/02/13 04:24:37;;;;;;;;;;;19.60;48.50;;;;;;5063306;28;20389;-54
2022/02/13 04:27:02;;;;;;;;;;;19.60;48.40;;;;;;5064140;28;19909;-53
2022/02/13 04:29:28;;;;;;;;;;;19.60;48.40;;;;;;5045115;28;19969;-56
2022/02/13 04:31:53;;;;;;;;;;;19.60;48.40;;;;;;5063137;28;19919;-52
2022/02/13 04:34:19;;;;;;;;;;;19.60;48.40;;;;;;5044890;28;20393;-56
2022/02/13 04:36:44;;;;;;;;;;;19.60;48.50;;;;;;5050413;28;19940;-57
2022/02/13 04:39:10;;;;;;;;;;;19.60;48.50;;;;;;5062796;28;19908;-55
2022/02/13 04:41:35;;;;;;;;;;;19.60;48.40;;;;;;5063643;28;19955;-58
2022/02/13 04:44:00;;;;;;;;;;;19.60;48.30;;;;;;5063883;28;19912;-58
2022/02/13 04:46:26;;;;;;;;;;;19.60;48.50;;;;;;5063386;28;20328;-55
2022/02/13 04:48:51;;;;;;;;;;;19.60;48.40;;;;;;5063237;28;19964;-57
2022/02/13 04:51:17;;;;;;;;;;;19.60;48.30;;;;;;5063293;28;19909;-56
2022/02/13 04:53:42;;;;;;;;;;;19.60;48.30;;;;;;5062420;28;19926;-55
2022/02/13 04:56:08;;;;;;;;;;;19.60;48.30;;;;;;5046751;28;20312;-54
2022/02/13 04:58:33;;;;;;;;;;;19.70;48.40;;;;;;5061222;28;20046;-57
2022/02/13 05:00:59;;;;;;;;;;;19.70;48.30;;;;;;5066444;28;19994;-57
2022/02/13 05:03:24;;;;;;;;;;;19.70;48.30;;;;;;5062301;28;20555;-51
2022/02/13 05:05:51;;;;;;;;;;;19.70;48.30;;;;;;5063101;28;19914;-57
2022/02/13 05:08:17;;;;;;;;;;;19.70;48.30;;;;;;5045011;28;20342;-55
2022/02/13 05:10:42;;;;;;;;;;;19.70;48.30;;;;;;5064520;28;19999;-53
2022/02/13 05:13:08;;;;;;;;;;;19.70;48.30;;;;;;5071882;28;19942;-55
2022/02/13 05:15:33;;;;;;;;;;;19.70;48.30;;;;;;5066609;28;19909;-56
2022/02/13 05:17:59;;;;;;;;;;;19.70;48.20;;;;;;5066870;28;20720;-52
2022/02/13 05:20:24;;;;;;;;;;;19.70;48.20;;;;;;5065931;28;19912;-58
2022/02/13 05:22:50;;;;;;;;;;;19.70;48.10;;;;;;5066654;28;19908;-58
2022/02/13 05:25:15;;;;;;;;;;;19.70;48.20;;;;;;5067096;28;20384;-52
2022/02/13 05:27:40;;;;;;;;;;;19.70;48.20;;;;;;5066438;28;19908;-58
2022/02/13 05:30:06;;;;;;;;;;;19.70;48.20;;;;;;5066065;28;20358;-53
2022/02/13 05:32:32;;;;;;;;;;;19.70;48.20;;;;;;5067190;28;19908;-58
2022/02/13 05:34:57;;;;;;;;;;;19.70;48.20;;;;;;5048825;28;19993;-57
2022/02/13 05:37:23;;;;;;;;;;;19.70;48.60;;;;;;5048478;28;19940;-56
2022/02/13 05:39:48;;;;;;;;;;;19.80;48.20;;;;;;5065556;28;19909;-54
2022/02/13 05:42:14;;;;;;;;;;;19.70;47.90;;;;;;5048285;28;19943;-56
2022/02/13 05:44:39;;;;;;;;;;;19.70;48.00;;;;;;5065711;28;19909;-54
2022/02/13 05:47:05;;;;;;;;;;;19.70;48.00;;;;;;5068208;28;19921;-53
2022/02/13 05:49:31;;;;;;;;;;;19.80;48.10;;;;;;5065507;28;20374;-53
2022/02/13 05:51:56;;;;;;;;;;;19.80;48.10;;;;;;5088287;22;20003;-63
2022/02/13 05:54:22;;;;;;;;;;;19.70;48.10;;;;;;5069828;28;19974;-63
2022/02/13 05:56:47;;;;;;;;;;;19.70;48.10;;;;;;5052657;28;19958;-63
2022/02/13 05:59:13;;;;;;;;;;;19.80;48.10;;;;;;5070103;28;19909;-63
2022/02/13 06:01:38;;;;;;;;;;;19.80;48.00;;;;;;5052458;28;19912;-64
2022/02/13 06:04:04;;;;;;;;;;;19.80;48.10;;;;;;5035521;28;19954;-63
2022/02/13 06:06:29;;;;;;;;;;;19.80;48.10;;;;;;5070177;28;19904;-63
2022/02/13 06:08:55;;;;;;;;;;;19.80;48.00;;;;;;5070336;28;19904;-63
2022/02/13 06:11:20;;;;;;;;;;;19.70;48.00;;;;;;5070203;28;19908;-63
2022/02/13 06:13:45;;;;;;;;;;;19.80;47.90;;;;;;5069682;28;20337;-64
2022/02/13 06:16:11;;;;;;;;;;;19.80;48.10;;;;;;5069990;28;19916;-63
2022/02/13 06:18:36;;;;;;;;;;;19.80;47.80;;;;;;5051769;28;19908;-63
2022/02/13 06:21:02;;;;;;;;;;;19.80;47.80;;;;;;5069517;28;19904;-63
2022/02/13 06:23:28;;;;;;;;;;;19.70;47.80;;;;;;5069466;28;20407;-63
2022/02/13 06:25:54;;;;;;;;;;;19.70;48.00;;;;;;5069950;28;19911;-64
2022/02/13 06:28:19;;;;;;;;;;;19.70;47.90;;;;;;5069304;28;19957;-63
2022/02/13 06:30:45;;;;;;;;;;;19.70;47.80;;;;;;5068937;28;19908;-63
2022/02/13 06:33:10;;;;;;;;;;;19.70;47.90;;;;;;5069529;28;20039;-63
2022/02/13 06:35:36;;;;;;;;;;;19.70;47.80;;;;;;5069766;28;20551;-63
2022/02/13 06:38:01;;;;;;;;;;;19.70;48.00;;;;;;5069569;28;19912;-63
2022/02/13 06:40:27;;;;;;;;;;;19.70;47.80;;;;;;5051656;28;19995;-63
2022/02/13 06:42:52;;;;;;;;;;;19.70;48.00;;;;;;5069701;28;19904;-63
2022/02/13 06:45:18;;;;;;;;;;;19.60;47.80;;;;;;5069271;28;19966;-63
2022/02/13 06:47:43;;;;;;;;;;;19.60;47.60;;;;;;5069642;28;19904;-64
2022/02/13 06:50:09;;;;;;;;;;;19.60;47.90;;;;;;5069166;28;19911;-63
2022/02/13 06:52:34;;;;;;;;;;;19.60;47.80;;;;;;5051040;28;19912;-63
2022/02/13 06:55:00;;;;;;;;;;;19.60;47.80;;;;;;5069374;28;19909;-63
2022/02/13 06:57:25;;;;;;;;;;;19.60;47.70;;;;;;5051327;28;19910;-63
2022/02/13 06:59:51;;;;;;;;;;;19.60;47.80;;;;;;5068423;28;20718;-63
2022/02/13 07:02:16;;;;;;;;;;;19.60;48.00;;;;;;5069538;28;19987;-63
2022/02/13 07:04:42;;;;;;;;;;;19.50;47.80;;;;;;5069143;28;19922;-63
2022/02/13 07:07:08;;;;;;;;;;;19.60;47.80;;;;;;5051035;28;20370;-63
2022/02/13 07:09:34;;;;;;;;;;;19.60;47.80;;;;;;5068671;28;19904;-63
2022/02/13 07:12:04;;;;;;;;;;;19.60;47.50;;;;;;5050687;28;19919;-63
2022/02/13 07:14:30;;;;;;;;;;;19.50;47.50;;;;;;5051152;28;19914;-64
2022/02/13 07:16:56;;;;;;;;;;;19.50;47.60;;;;;;5069053;28;19994;-63
2022/02/13 07:19:21;;;;;;;;;;;19.50;48.00;;;;;;5068759;28;19901;-64
2022/02/13 07:21:46;;;;;;;;;;;19.50;48.00;;;;;;5050740;28;19900;-64
2022/02/13 07:24:14;;;;;;;;;;;19.50;47.70;;;;;;5068552;28;19912;-63
2022/02/13 07:26:39;;;;;;;;;;;19.50;47.70;;;;;;5050773;28;19908;-64
2022/02/13 07:29:08;;;;;;;;;;;19.50;47.80;;;;;;5068319;28;19909;-64
2022/02/13 07:31:35;;;;;;;;;;;19.50;47.80;;;;;;5068883;28;19901;-63
2022/02/13 07:34:00;;;;;;;;;;;19.50;47.70;;;;;;5049868;28;20474;-64
2022/02/13 07:36:26;;;;;;;;;;;19.60;48.10;;;;;;5050603;28;19939;-64
2022/02/13 07:38:51;;;;;;;;;;;19.50;47.80;;;;;;5068201;28;19954;-63
2022/02/13 07:41:18;;;;;;;;;;;19.50;47.80;;;;;;5068801;28;19916;-63
2022/02/13 07:43:43;;;;;;;;;;;19.50;47.70;;;;;;5068536;28;19908;-63
2022/02/13 07:46:09;;;;;;;;;;;19.50;47.70;;;;;;5068629;28;20263;-63
2022/02/13 07:48:34;;;;;;;;;;;19.50;47.80;;;;;;5068036;28;19901;-63
2022/02/13 07:51:00;;;;;;;;;;;19.50;47.90;;;;;;5067500;28;19904;-64
2022/02/13 07:53:25;;;;;;;;;;;19.50;47.90;;;;;;5068424;28;19958;-63
2022/02/13 07:55:51;;;;;;;;;;;19.50;47.80;;;;;;5068394;28;19961;-63
2022/02/13 07:58:16;;;;;;;;;;;19.50;47.90;;;;;;5069013;28;19904;-63
2022/02/13 08:00:42;;;;;;;;;;;19.50;47.80;;;;;;5051391;28;20285;-63
2022/02/13 08:03:07;;;;;;;;;;;19.50;47.90;;;;;;5068645;28;19958;-63
2022/02/13 08:05:33;;;;;;;;;;;19.50;47.90;;;;;;5050938;28;19908;-63
2022/02/13 08:07:58;;;;;;;;;;;19.50;47.90;;;;;;5068764;28;20309;-63
2022/02/13 08:10:24;;;;;;;;;;;19.50;47.70;;;;;;5046779;28;19901;-63
2022/02/13 08:12:49;;;;;;;;;;;19.50;47.80;;;;;;5050090;28;19916;-63
2022/02/13 08:15:15;;;;;;;;;;;19.50;48.00;;;;;;5067512;28;20271;-63
2022/02/13 08:17:40;;;;;;;;;;;19.50;47.90;;;;;;5068195;28;20148;-64
2022/02/13 08:20:07;;;;;;;;;;;19.50;47.90;;;;;;5066980;28;19904;-63
2022/02/13 08:22:33;;;;;;;;;;;19.50;48.50;;;;;;5066060;28;19907;-64
2022/02/13 08:24:59;;;;;;;;;;;19.50;47.90;;;;;;5067632;28;19909;-63
2022/02/13 08:27:24;;;;;;;;;;;19.50;47.90;;;;;;5067798;28;19900;-63
2022/02/13 08:29:51;;;;;;;;;;;19.50;47.70;;;;;;5067781;28;19904;-64
2022/02/13 08:32:16;;;;;;;;;;;19.50;48.00;;;;;;5067853;28;20382;-63
2022/02/13 08:34:42;;;;;;;;;;;19.50;47.80;;;;;;5049779;28;19904;-63
2022/02/13 08:37:07;;;;;;;;;;;19.50;47.60;;;;;;5067548;28;19920;-64
2022/02/13 08:39:33;;;;;;;;;;;19.50;47.60;;;;;;5067794;28;20416;-64
2022/02/13 08:41:58;;;;;;;;;;;19.50;47.60;;;;;;5068546;28;19907;-65
2022/02/13 08:44:24;;;;;;;;;;;19.50;47.70;;;;;;5068466;28;19956;-64
2022/02/13 08:46:49;;;;;;;;;;;19.50;47.70;;;;;;5071497;28;19901;-61
2022/02/13 08:49:15;;;;;;;;;;;19.50;47.70;;;;;;5071770;28;19905;-62
2022/02/13 08:51:40;;;;;;;;;;;19.50;47.80;;;;;;5072052;28;20354;-65
2022/02/13 08:54:06;;;;;;;;;;;19.50;47.70;;;;;;5054233;28;19908;-63
2022/02/13 08:56:31;;;;;;;;;;;19.50;47.80;;;;;;5071931;28;20270;-64
2022/02/13 08:58:57;;;;;;;;;;;19.50;47.90;;;;;;5071886;28;19962;-62
2022/02/13 09:01:23;;;;;;;;;;;19.50;47.90;;;;;;5071855;28;19901;-62
2022/02/13 09:03:48;;;;;;;;;;;19.50;47.90;;;;;;5071501;28;19907;-62
2022/02/13 09:06:14;;;;;;;;;;;19.50;48.00;;;;;;5071718;28;20409;-61
2022/02/13 09:08:39;;;;;;;;;;;19.50;48.00;;;;;;5071541;28;19912;-61
2022/02/13 09:11:05;;;;;;;;;;;19.50;48.00;;;;;;5071205;28;20389;-62
2022/02/13 09:13:30;;;;;;;;;;;19.50;48.00;;;;;;5071023;28;19917;-56
2022/02/13 09:15:55;;;;;;;;;;;19.50;48.20;;;;;;5071339;28;19908;-60
2022/02/13 09:18:21;;;;;;;;;;;19.50;48.00;;;;;;5071439;28;20489;-61
2022/02/13 09:20:46;;;;;;;;;;;19.50;48.10;;;;;;5071684;28;19977;-62
2022/02/13 09:23:13;;;;;;;;;;;19.50;48.10;;;;;;5071862;28;19908;-61
2022/02/13 09:25:39;;;;;;;;;;;19.40;48.20;;;;;;5072478;28;19920;-62
2022/02/13 09:28:05;;;;;;;;;;;19.50;48.10;;;;;;5073047;28;20337;-63
2022/02/13 09:30:30;;;;;;;;;;;19.50;48.30;;;;;;5073020;28;19904;-62
2022/02/13 09:32:55;;;;;;;;;;;19.50;49.00;;;;;;5072368;28;19900;-63
2022/02/13 09:35:21;;;;;;;;;;;19.50;48.30;;;;;;5072216;28;19972;-63
2022/02/13 09:37:48;;;;;;;;;;;19.50;48.30;;;;;;5071354;28;19900;-63
2022/02/13 09:40:13;;;;;;;;;;;19.50;48.30;;;;;;5071514;28;19920;-62
2022/02/13 09:42:40;;;;;;;;;;;19.50;48.40;;;;;;5071368;28;19900;-62
2022/02/13 09:45:06;;;;;;;;;;;19.50;48.40;;;;;;5071194;28;19900;-63
2022/02/13 09:47:31;;;;;;;;;;;19.40;48.90;;;;;;5070098;28;19901;-62
2022/02/13 09:49:57;;;;;;;;;;;19.40;49.30;;;;;;5069345;28;19936;-65
2022/02/13 09:52:23;;;;;;;;;;;19.40;49.60;;;;;;5052484;28;19911;-66
2022/02/13 09:54:48;;;;;;;;;;;19.40;49.70;;;;;;5053070;28;19911;-64
2022/02/13 09:59:58;;;;;;;;;;;19.40;49.70;;;;;;5070554;28;19966;-63
2022/02/13 10:02:30;;;;;;;;;;;19.40;49.40;;;;;;5052669;28;19900;-64
2022/02/13 10:04:56;;;;;;;;;;;19.40;49.40;;;;;;5068277;28;19907;-64
2022/02/13 10:07:23;;;;;;;;;;;19.30;49.90;;;;;;5042378;28;19908;-63
2022/02/13 10:09:56;;;;;;;;;;;19.30;49.10;;;;;;5045351;28;20353;-62
2022/02/13 10:12:31;;;;;;;;;;;19.30;49.20;;;;;;4977079;28;19963;-63
2022/02/13 10:14:56;;;;;;;;;;;19.30;49.30;;;;;;5030325;28;19916;-63
2022/02/13 10:17:22;;;;;;;;;;;19.30;49.40;;;;;;5048242;28;19909;-62
2022/02/13 10:19:53;;;;;;;;;;;19.30;49.40;;;;;;5047425;28;19917;-63
2022/02/13 10:22:33;;;;;;;;;;;19.30;49.50;;;;;;5047532;28;19916;-61
2022/02/13 10:25:12;;;;;;;;;;;19.30;49.60;;;;;;5065324;28;20283;-63
2022/02/13 10:27:47;;;;;;;;;;;19.40;49.70;;;;;;5066609;28;19955;-63
2022/02/13 10:30:12;;;;;;;;;;;19.40;49.60;;;;;;5067604;28;20463;-63
2022/02/13 10:32:39;;;;;;;;;;;19.40;49.90;;;;;;5067638;28;19916;-64
2022/02/13 10:35:11;;;;;;;;;;;19.40;50.00;;;;;;5067625;28;19947;-63
2022/02/13 10:37:39;;;;;;;;;;;19.40;50.20;;;;;;5067032;28;19909;-64
2022/02/13 10:40:05;;;;;;;;;;;19.40;50.20;;;;;;5067383;28;19923;-62
2022/02/13 10:42:31;;;;;;;;;;;19.40;50.20;;;;;;5067471;28;19912;-64
2022/02/13 10:45:15;;;;;;;;;;;19.40;50.20;;;;;;5067677;28;19909;-63
2022/02/13 10:47:40;;;;;;;;;;;19.40;50.40;;;;;;5067011;28;19912;-63
2022/02/13 10:50:06;;;;;;;;;;;19.50;50.40;;;;;;5048829;28;19935;-64
2022/02/13 10:52:31;;;;;;;;;;;19.50;50.40;;;;;;5049297;28;19996;-63
2022/02/13 10:54:57;;;;;;;;;;;19.50;50.30;;;;;;5049719;28;19920;-63
2022/02/13 10:57:22;;;;;;;;;;;19.50;50.20;;;;;;5067763;28;19909;-65
2022/02/13 10:59:48;;;;;;;;;;;19.50;50.10;;;;;;5066770;28;19908;-63
2022/02/13 11:02:13;;;;;;;;;;;19.50;50.10;;;;;;5066719;28;19912;-64
2022/02/13 11:04:39;;;;;;;;;;;19.50;50.00;;;;;;5067081;28;20363;-63
2022/02/13 11:07:04;;;;;;;;;;;19.50;50.00;;;;;;5066887;28;19923;-64
2022/02/13 11:09:29;;;;;;;;;;;19.50;50.10;;;;;;5047507;28;19908;-63
2022/02/13 11:11:56;;;;;;;;;;;19.50;50.10;;;;;;5049374;28;20367;-63
2022/02/13 11:14:26;;;;;;;;;;;19.50;50.10;;;;;;5048911;28;20393;-64
2022/02/13 11:16:52;;;;;;;;;;;19.50;50.10;;;;;;5066283;28;19915;-64
2022/02/13 11:19:17;;;;;;;;;;;19.50;50.00;;;;;;5048406;28;19916;-64
2022/02/13 11:21:43;;;;;;;;;;;19.50;50.00;;;;;;5048238;28;19909;-62
2022/02/13 11:24:22;;;;;;;;;;;19.50;50.10;;;;;;5066547;28;19914;-63
2022/02/13 11:26:47;;;;;;;;;;;19.50;50.10;;;;;;5045261;28;19917;-63
2022/02/13 11:29:13;;;;;;;;;;;19.50;50.20;;;;;;5045904;28;19916;-62
2022/02/13 11:31:40;;;;;;;;;;;19.60;50.20;;;;;;5028657;28;20398;-65
2022/02/13 11:34:07;;;;;;;;;;;19.60;50.20;;;;;;5050255;28;19952;-64
2022/02/13 11:36:39;;;;;;;;;;;19.60;50.20;;;;;;5028769;28;19913;-64
2022/02/13 11:39:04;;;;;;;;;;;19.60;50.20;;;;;;5046173;28;19908;-65
2022/02/13 11:41:45;;;;;;;;;;;19.60;50.20;;;;;;5046375;28;19909;-63
2022/02/13 11:44:10;;;;;;;;;;;19.60;50.30;;;;;;5046093;28;19940;-65
2022/02/13 11:46:36;;;;;;;;;;;19.70;50.30;;;;;;5046199;28;19915;-64
2022/02/13 11:49:04;;;;;;;;;;;19.70;50.40;;;;;;5050131;28;20472;-64
2022/02/13 11:51:53;;;;;;;;;;;19.70;50.40;;;;;;5057964;28;19999;-65
2022/02/13 11:54:37;;;;;;;;;;;19.70;50.40;;;;;;5047771;28;19978;-64
2022/02/13 11:57:15;;;;;;;;;;;19.70;50.30;;;;;;5048538;28;19913;-64
2022/02/13 11:59:47;;;;;;;;;;;19.70;50.40;;;;;;5062293;28;19915;-63
2022/02/13 12:02:16;;;;;;;;;;;19.70;51.10;;;;;;5046790;28;19954;-64
2022/02/13 12:05:04;;;;;;;;;;;19.70;50.60;;;;;;5028228;28;19975;-65
2022/02/13 12:07:44;;;;;;;;;;;19.70;50.70;;;;;;5045518;28;20010;-64
2022/02/13 12:10:20;;;;;;;;;;;19.70;50.80;;;;;;5045117;28;19909;-63
2022/02/13 12:12:46;;;;;;;;;;;19.70;50.90;;;;;;5046680;28;19920;-63
2022/02/13 12:15:12;;;;;;;;;;;19.70;51.00;;;;;;5028523;28;19912;-63
2022/02/13 12:17:37;;;;;;;;;;;19.60;51.00;;;;;;5027500;28;19991;-66
2022/02/13 12:20:07;;;;;;;;;;;19.60;51.10;;;;;;5043578;28;19908;-65
2022/02/13 12:22:32;;;;;;;;;;;19.60;51.20;;;;;;5065318;28;19940;-63
2022/02/13 12:24:58;;;;;;;;;;;19.60;51.30;;;;;;5034718;28;20013;-63
2022/02/13 12:27:23;;;;;;;;;;;19.60;51.40;;;;;;5065289;28;19916;-63
2022/02/13 12:29:55;;;;;;;;;;;19.60;51.50;;;;;;5064126;28;19916;-65
2022/02/13 12:32:25;;;;;;;;;;;19.60;51.60;;;;;;5046649;28;20452;-63
2022/02/13 12:34:54;;;;;;;;;;;19.60;51.70;;;;;;5064566;28;20299;-64
2022/02/13 12:37:20;;;;;;;;;;;19.60;51.70;;;;;;5065522;28;19914;-63
2022/02/13 12:39:49;;;;;;;;;;;19.60;51.80;;;;;;5047670;28;19991;-62
2022/02/13 12:42:24;;;;;;;;;;;19.60;52.00;;;;;;5050361;28;19908;-62
2022/02/13 12:44:55;;;;;;;;;;;19.60;51.90;;;;;;5056198;28;19916;-63
2022/02/13 12:47:25;;;;;;;;;;;19.60;51.90;;;;;;5064410;28;19909;-63
2022/02/13 12:49:50;;;;;;;;;;;19.60;52.10;;;;;;5052889;28;20019;-63
2022/02/13 12:52:16;;;;;;;;;;;19.60;52.30;;;;;;5059341;28;19913;-63
2022/02/13 12:54:42;;;;;;;;;;;19.60;52.70;;;;;;5055249;28;19916;-62
2022/02/13 12:57:22;;;;;;;;;;;19.50;52.60;;;;;;5051110;28;19912;-63
2022/02/13 12:59:47;;;;;;;;;;;19.60;52.70;;;;;;5050936;28;19916;-63
2022/02/13 13:02:19;;;;;;;;;;;19.60;52.80;;;;;;5028059;28;19909;-65
2022/02/13 13:04:45;;;;;;;;;;;19.60;52.90;;;;;;5045913;28;20364;-67
2022/02/13 13:07:20;;;;;;;;;;;19.60;52.90;;;;;;5059429;28;19934;-66
2022/02/13 13:09:46;;;;;;;;;;;19.60;52.90;;;;;;5044355;28;19909;-64
2022/02/13 13:12:15;;;;;;;;;;;19.60;53.00;;;;;;5049051;28;19962;-64
2022/02/13 13:14:40;;;;;;;;;;;19.60;52.80;;;;;;5052758;28;19913;-64
2022/02/13 13:17:06;;;;;;;;;;;19.70;52.90;;;;;;5053172;28;19909;-65
2022/02/13 13:19:32;;;;;;;;;;;19.60;52.80;;;;;;5033295;28;19909;-65
2022/02/13 13:21:58;;;;;;;;;;;19.60;52.70;;;;;;5027472;28;19909;-65
2022/02/13 13:24:25;;;;;;;;;;;19.70;52.50;;;;;;5047912;28;20298;-64
2022/02/13 13:27:00;;;;;;;;;;;19.70;52.40;;;;;;5065015;28;19908;-65
2022/02/13 13:29:29;;;;;;;;;;;19.70;52.50;;;;;;5060448;28;19908;-63
2022/02/13 13:31:55;;;;;;;;;;;19.70;52.40;;;;;;5052647;28;20509;-63
2022/02/13 13:34:20;;;;;;;;;;;19.70;52.30;;;;;;5022204;28;20590;-63
2022/02/13 13:36:46;;;;;;;;;;;19.70;52.20;;;;;;5047349;28;19939;-65
2022/02/13 13:39:31;;;;;;;;;;;19.70;52.10;;;;;;5058195;28;20344;-64
2022/02/13 13:41:57;;;;;;;;;;;19.70;52.10;;;;;;5060722;28;20325;-65
2022/02/13 13:44:26;;;;;;;;;;;19.70;51.90;;;;;;5038534;28;19921;-64
2022/02/13 13:46:51;;;;;;;;;;;19.80;51.90;;;;;;5052938;28;20543;-65
2022/02/13 13:49:17;;;;;;;;;;;19.80;51.90;;;;;;5054801;28;19909;-64
2022/02/13 13:51:42;;;;;;;;;;;19.80;51.90;;;;;;5068931;28;20290;-65
2022/02/13 13:54:08;;;;;;;;;;;19.90;51.70;;;;;;5050102;28;19950;-66
2022/02/13 13:56:33;;;;;;;;;;;19.80;51.80;;;;;;5050737;28;19913;-65
2022/02/13 13:58:59;;;;;;;;;;;19.80;51.90;;;;;;5029649;28;19909;-65
2022/02/13 14:01:24;;;;;;;;;;;19.70;51.90;;;;;;5056233;28;20302;-65
2022/02/13 14:03:50;;;;;;;;;;;19.80;52.00;;;;;;5067741;28;19909;-63
2022/02/13 14:06:15;;;;;;;;;;;19.70;52.60;;;;;;5052880;28;19909;-64
2022/02/13 14:08:41;;;;;;;;;;;19.70;52.20;;;;;;5054146;28;19923;-64
2022/02/13 14:11:06;;;;;;;;;;;19.70;52.30;;;;;;5067342;28;20294;-64
2022/02/13 14:13:31;;;;;;;;;;;19.80;52.50;;;;;;5059444;28;19948;-64